Bisbee, AZ

1:15 AM MST on February 14, 2016 (GMT -0700)
Via Liberacion | | Change Station
CLOSE
Current Station
Personal Weather Station
Location: Bisbee, AZ
Elevation: 4757 ft
Nearby Weather Stations

Elev 4757 ft 31.41 °N, 110.01 °W | Updated 6 seconds ago

Clear
Clear
48.0 °F
Feels Like 48 °F
N
2.9
Wind Variable Wind from ESE
Gusts 4.9 mph

Today
High -- | Low -- °F
--% Chance of Precip.
Yesterday
High -- | Low -- °F
Precip. -- in
Pressure 29.96 in
Visibility 10.0 miles
Clouds Clear
Windchill 48 °F
Dew Point 18 °F
Humidity 30%
Rainfall 0.00 in
Snow Depth Not available.
7:02 AM 6:05 PM
Waxing Crescent, 39% visible
METAR KDUG 140756Z AUTO 01009KT 10SM CLR 09/M08 A3010 RMK AO2 SLP144 T00891083
Pressure 29.96 in
Visibility 10.0 miles
Clouds Clear
Windchill 48 °F
Dew Point 18 °F
Humidity 30%
Rainfall 0.00 in
Snow Depth Not available.
7:02 AM 6:05 PM
Waxing Crescent, 39% visible
METAR KDUG 140756Z AUTO 01009KT 10SM CLR 09/M08 A3010 RMK AO2 SLP144 T00891083

10-Day Weather Forecast

Almanac

Astronomy

Feb. 14, 2016 Rise Set
Actual Time
Civil Twilight
Nautical Twilight
Astronomical Twilight
Moon
Length of Visible Light
Length of Day
Tomorrow will be .
, % of the Moon is Illuminated

Today's Extremes

State Highs State Lows

Community

WunderPhotos

Upload Photos

1,892,757 photos uploaded!

WunderBlog® & News

Nearby

Air Quality

  Air Quality AQ Index Pollutant
Not available.

Snow Depth

Station Depth Elevation

Earthquake Activity

City Distance Mag. Time & Date
Minimum magnitude displayed is 2.5.

Coastal Water Temperatures

Place Temperature

Stations

Nearby Weather Stations

Station Location Temp. Windchill Dew Point Humidity Wind Precip. Elev Updated Type
                   

Watches & Warnings

There are currently no watches in effect.